Time;durP1;ratioP1;P1;durP2;ratioP2;P2;SDS_P1;SDS_P2;PMS_P1;PMS_P2;Temp;Humidity;BMP_temperature;BMP_pressure;BME280_temperature;BME280_humidity;BME280_pressure;Samples;Min_cycle;Max_cycle;Signal;HPM_P1;HPM_P2
2024/02/22 00:01:43;;;;;;;10.50;10.00;;;10.50;87.20;;;;;;4781035;29;20283;-46
2024/02/22 00:04:09;;;;;;;10.90;10.37;;;10.50;88.30;;;;;;4788378;29;20643;-46
2024/02/22 00:06:37;;;;;;;11.17;10.57;;;10.50;88.80;;;;;;4789243;29;20187;-44
2024/02/22 00:09:03;;;;;;;11.13;10.53;;;10.50;89.60;;;;;;4790996;29;20171;-45
2024/02/22 00:11:29;;;;;;;11.00;10.40;;;10.40;88.60;;;;;;4782202;29;21142;-44
2024/02/22 00:13:55;;;;;;;11.30;10.60;;;10.40;88.40;;;;;;4789714;29;20536;-46
2024/02/22 00:16:21;;;;;;;11.60;10.80;;;10.50;89.20;;;;;;4787734;29;20670;-46
2024/02/22 00:18:47;;;;;;;11.10;10.50;;;10.50;89.00;;;;;;4788713;29;20191;-45
2024/02/22 00:21:14;;;;;;;10.60;10.00;;;10.50;88.70;;;;;;4787398;29;20483;-45
2024/02/22 00:23:39;;;;;;;10.80;10.30;;;10.50;87.60;;;;;;4789455;29;20198;-44
2024/02/22 00:26:05;;;;;;;10.70;10.20;;;10.60;88.70;;;;;;4781906;29;20998;-50
2024/02/22 00:28:31;;;;;;;10.90;10.30;;;10.60;88.20;;;;;;4794751;29;20764;-44
2024/02/22 00:30:57;;;;;;;11.30;10.60;;;10.60;87.90;;;;;;4789263;29;20423;-46
2024/02/22 00:33:22;;;;;;;10.33;9.83;;;10.60;87.30;;;;;;4792527;29;20206;-45
2024/02/22 00:35:48;;;;;;;10.10;9.70;;;10.60;87.60;;;;;;4783917;29;20195;-48
2024/02/22 00:38:13;;;;;;;9.97;9.57;;;10.70;86.80;;;;;;4789050;29;20187;-44
2024/02/22 00:40:39;;;;;;;10.20;9.80;;;10.80;86.40;;;;;;4784064;29;20191;-44
2024/02/22 00:43:05;;;;;;;10.10;9.70;;;10.80;86.80;;;;;;4793672;29;20222;-43
2024/02/22 00:45:33;;;;;;;10.33;9.83;;;10.90;86.30;;;;;;4780193;29;20602;-45
2024/02/22 00:47:59;;;;;;;10.30;9.90;;;10.90;86.30;;;;;;4793536;29;20249;-43
2024/02/22 00:50:26;;;;;;;10.00;9.60;;;11.00;87.10;;;;;;4780185;29;20441;-47
2024/02/22 00:52:55;;;;;;;9.97;9.57;;;11.10;87.80;;;;;;4785352;29;20543;-45
2024/02/22 00:55:21;;;;;;;10.30;9.80;;;11.10;88.20;;;;;;4786974;29;20900;-44
2024/02/22 00:57:47;;;;;;;10.23;9.73;;;11.10;88.90;;;;;;4790017;29;20437;-45
2024/02/22 01:00:12;;;;;;;10.37;9.97;;;11.10;89.50;;;;;;4779178;29;20191;-45
2024/02/22 01:02:41;;;;;;;10.67;10.17;;;11.10;89.90;;;;;;4783077;29;20219;-44
2024/02/22 01:05:08;;;;;;;11.03;10.43;;;11.10;90.30;;;;;;4781672;29;21336;-44
2024/02/22 01:07:33;;;;;;;10.67;10.27;;;11.00;90.10;;;;;;4785510;29;20428;-44
2024/02/22 01:09:59;;;;;;;10.50;10.00;;;11.00;90.10;;;;;;4787347;29;20432;-43
2024/02/22 01:12:25;;;;;;;10.67;10.17;;;11.00;90.10;;;;;;4782817;29;20192;-47
2024/02/22 01:14:51;;;;;;;10.17;9.73;;;10.90;89.50;;;;;;4783464;29;20539;-44
2024/02/22 01:17:16;;;;;;;10.80;10.20;;;11.00;89.10;;;;;;4779682;29;20203;-45
2024/02/22 01:19:45;;;;;;;10.67;9.97;;;11.00;88.20;;;;;;4781610;29;20199;-44
2024/02/22 01:22:11;;;;;;;11.67;10.80;;;11.10;87.60;;;;;;4783538;29;20870;-46
2024/02/22 01:24:37;;;;;;;11.57;10.77;;;11.00;87.30;;;;;;4785272;29;20469;-45
2024/02/22 01:27:02;;;;;;;11.87;10.97;;;11.00;87.80;;;;;;4790843;29;20444;-42
2024/02/22 01:29:28;;;;;;;12.33;11.53;;;10.90;88.20;;;;;;4794121;29;20186;-44
2024/02/22 01:31:54;;;;;;;11.90;11.20;;;10.80;88.60;;;;;;4787085;29;20428;-49
2024/02/22 01:34:19;;;;;;;12.10;11.47;;;10.80;89.00;;;;;;4784030;29;20210;-42
2024/02/22 01:36:45;;;;;;;12.23;11.47;;;10.80;89.40;;;;;;4783295;29;20194;-43
2024/02/22 01:39:11;;;;;;;13.00;11.70;;;10.70;89.40;;;;;;4785564;29;20211;-42
2024/02/22 01:41:37;;;;;;;12.40;11.40;;;10.70;89.80;;;;;;4789213;29;20626;-47
2024/02/22 01:44:03;;;;;;;12.03;11.33;;;10.70;90.10;;;;;;4794302;29;20517;-44
2024/02/22 01:46:29;;;;;;;12.17;11.37;;;10.60;90.00;;;;;;4787620;29;20206;-43
2024/02/22 01:48:55;;;;;;;11.90;11.30;;;10.60;90.20;;;;;;4786973;29;20198;-44
2024/02/22 01:51:21;;;;;;;12.77;11.87;;;10.60;90.20;;;;;;4782123;29;20449;-43
2024/02/22 01:53:49;;;;;;;12.10;11.40;;;10.60;90.30;;;;;;4792699;29;20463;-46
2024/02/22 01:56:18;;;;;;;12.23;11.60;;;10.50;90.30;;;;;;4789503;29;20553;-44
2024/02/22 01:58:44;;;;;;;11.90;11.17;;;10.50;90.50;;;;;;4791839;29;20528;-47
2024/02/22 02:01:10;;;;;;;12.30;11.50;;;10.50;90.50;;;;;;4786980;29;20465;-44
2024/02/22 02:03:37;;;;;;;12.10;11.37;;;10.50;91.00;;;;;;4785120;29;20249;-43
2024/02/22 02:06:03;;;;;;;12.93;11.90;;;10.50;91.00;;;;;;4780955;29;21534;-47
2024/02/22 02:08:29;;;;;;;11.30;10.70;;;10.40;91.00;;;;;;4788873;29;20440;-46
2024/02/22 02:10:54;;;;;;;12.13;11.30;;;10.40;91.30;;;;;;4787779;29;20429;-44
2024/02/22 02:13:20;;;;;;;12.00;11.20;;;10.40;91.90;;;;;;4780253;29;20241;-44
2024/02/22 02:15:46;;;;;;;12.20;11.50;;;10.40;92.20;;;;;;4789210;29;20195;-45
2024/02/22 02:18:11;;;;;;;11.57;10.90;;;10.40;92.60;;;;;;4779306;29;20187;-47
2024/02/22 02:20:49;;;;;;;11.40;10.80;;;10.40;92.90;;;;;;4783550;29;20551;-46
2024/02/22 02:23:33;;;;;;;11.40;10.70;;;10.40;93.00;;;;;;4784196;29;20225;-44
2024/02/22 02:25:58;;;;;;;11.60;10.80;;;10.30;93.50;;;;;;4782841;29;20452;-46
2024/02/22 02:28:24;;;;;;;11.57;10.90;;;10.30;93.50;;;;;;4788406;29;20791;-46
2024/02/22 02:30:50;;;;;;;11.83;11.00;;;10.20;94.20;;;;;;4791503;29;20974;-45
2024/02/22 02:33:15;;;;;;;11.10;10.53;;;10.20;94.30;;;;;;4779760;29;20213;-44
2024/02/22 02:35:41;;;;;;;11.57;10.87;;;10.20;94.70;;;;;;4790894;29;20197;-49
2024/02/22 02:38:10;;;;;;;11.23;10.63;;;10.10;94.50;;;;;;4787061;29;20195;-44
2024/02/22 02:40:35;;;;;;;11.07;10.53;;;10.10;95.60;;;;;;4787414;29;20202;-45
2024/02/22 02:43:01;;;;;;;11.57;10.93;;;10.10;95.40;;;;;;4778434;29;20998;-45
2024/02/22 02:45:27;;;;;;;11.90;11.13;;;10.00;96.10;;;;;;4783699;29;20205;-44
2024/02/22 02:47:53;;;;;;;11.40;10.80;;;10.00;96.80;;;;;;4782535;29;20194;-44
2024/02/22 02:50:18;;;;;;;10.90;10.37;;;9.90;97.40;;;;;;4786610;29;20213;-43
2024/02/22 02:52:44;;;;;;;11.77;11.07;;;9.90;97.20;;;;;;4789011;29;20429;-46
2024/02/22 02:55:13;;;;;;;11.50;10.90;;;9.90;97.50;;;;;;4791980;29;20522;-46
2024/02/22 02:57:40;;;;;;;12.07;11.37;;;9.80;97.30;;;;;;4791182;29;20277;-46
2024/02/22 03:00:13;;;;;;;11.43;10.73;;;9.80;97.70;;;;;;4779860;29;20467;-44
2024/02/22 03:02:42;;;;;;;11.50;10.80;;;9.80;97.90;;;;;;4782961;29;20480;-45
2024/02/22 03:05:09;;;;;;;11.10;10.50;;;9.80;98.30;;;;;;4785587;29;20450;-46
2024/02/22 03:07:35;;;;;;;11.23;10.57;;;9.80;98.30;;;;;;4784583;29;20794;-45
2024/02/22 03:10:01;;;;;;;11.30;10.80;;;9.70;98.70;;;;;;4780903;29;20436;-47
2024/02/22 03:12:27;;;;;;;11.30;10.63;;;9.70;99.10;;;;;;4793701;29;20439;-45
2024/02/22 03:14:52;;;;;;;11.30;10.70;;;9.60;99.30;;;;;;4783843;29;20210;-45
2024/02/22 03:17:18;;;;;;;10.50;9.90;;;9.60;99.80;;;;;;4776101;29;21011;-50
2024/02/22 03:19:44;;;;;;;11.57;10.87;;;9.60;99.90;;;;;;4783981;29;20561;-43
2024/02/22 03:22:10;;;;;;;11.27;10.67;;;9.60;99.90;;;;;;4791883;29;20528;-43
2024/02/22 03:24:36;;;;;;;10.70;10.20;;;9.60;99.90;;;;;;4780970;29;20241;-44
2024/02/22 03:27:03;;;;;;;11.00;10.50;;;9.60;99.90;;;;;;4791446;29;20527;-50
2024/02/22 03:29:29;;;;;;;11.50;10.90;;;9.60;99.90;;;;;;4779402;29;20455;-43
2024/02/22 03:31:55;;;;;;;10.83;10.33;;;9.60;99.90;;;;;;4776725;29;20444;-49
2024/02/22 03:34:21;;;;;;;11.20;10.70;;;9.60;99.90;;;;;;4778990;29;20444;-44
2024/02/22 03:36:48;;;;;;;11.03;10.53;;;9.70;99.90;;;;;;4787742;29;20425;-47
2024/02/22 03:39:14;;;;;;;11.40;10.70;;;9.70;99.90;;;;;;4782647;29;20433;-44
2024/02/22 03:41:40;;;;;;;10.90;10.40;;;9.70;99.90;;;;;;4783284;29;20477;-46
2024/02/22 03:44:06;;;;;;;11.13;10.53;;;9.70;99.90;;;;;;4777223;29;20947;-47
2024/02/22 03:46:31;;;;;;;10.90;10.30;;;9.70;99.90;;;;;;4786707;29;20477;-50
2024/02/22 03:48:57;;;;;;;11.10;10.50;;;9.70;99.90;;;;;;4782739;29;20196;-44
2024/02/22 03:51:23;;;;;;;11.00;10.40;;;9.80;99.90;;;;;;4783484;29;20274;-43
2024/02/22 03:53:49;;;;;;;11.10;10.50;;;9.80;99.90;;;;;;4783493;29;20294;-45
2024/02/22 03:56:16;;;;;;;10.90;10.40;;;9.80;99.90;;;;;;4784979;29;20451;-49
2024/02/22 03:58:41;;;;;;;10.93;10.43;;;9.80;99.90;;;;;;4780907;29;20530;-44
2024/02/22 04:01:07;;;;;;;11.30;10.67;;;9.80;99.90;;;;;;4786136;29;20564;-45
2024/02/22 04:03:34;;;;;;;11.63;11.07;;;9.80;99.90;;;;;;4781687;29;20214;-47
2024/02/22 04:06:00;;;;;;;11.00;10.50;;;9.80;99.90;;;;;;4782744;29;20249;-45
2024/02/22 04:08:26;;;;;;;11.03;10.53;;;9.90;99.90;;;;;;4785508;29;20431;-45
2024/02/22 04:10:51;;;;;;;11.03;10.53;;;9.80;99.90;;;;;;4776840;29;20767;-46
2024/02/22 04:13:17;;;;;;;11.40;10.90;;;9.80;99.90;;;;;;4791132;29;20530;-43
2024/02/22 04:15:43;;;;;;;11.50;11.00;;;9.90;99.90;;;;;;4788502;29;20203;-44
2024/02/22 04:18:09;;;;;;;11.60;10.90;;;9.80;99.90;;;;;;4785919;29;20263;-50
2024/02/22 04:20:34;;;;;;;11.40;10.80;;;9.80;99.90;;;;;;4783987;29;20443;-48
2024/02/22 04:23:00;;;;;;;11.10;10.60;;;9.80;99.90;;;;;;4790911;29;20211;-46
2024/02/22 04:25:25;;;;;;;11.43;10.93;;;9.90;99.90;;;;;;4778595;29;20268;-45
2024/02/22 04:27:51;;;;;;;10.93;10.43;;;9.90;99.90;;;;;;4790218;29;20198;-44
2024/02/22 04:30:18;;;;;;;10.90;10.40;;;9.90;99.90;;;;;;4784067;29;20215;-48
2024/02/22 04:32:46;;;;;;;11.80;11.10;;;9.90;99.90;;;;;;4787225;29;20210;-47
2024/02/22 04:35:12;;;;;;;11.47;10.87;;;9.80;99.90;;;;;;4805280;29;21214;-45
2024/02/22 04:37:38;;;;;;;10.90;10.40;;;9.80;99.90;;;;;;4784878;29;20544;-46
2024/02/22 04:40:06;;;;;;;11.63;11.03;;;9.80;99.90;;;;;;4785568;29;20444;-44
2024/02/22 04:42:31;;;;;;;11.20;10.50;;;9.80;99.90;;;;;;4784749;29;20637;-51
2024/02/22 04:44:57;;;;;;;10.90;10.50;;;9.80;99.90;;;;;;4786969;29;20456;-44
2024/02/22 04:47:22;;;;;;;11.10;10.43;;;9.80;99.90;;;;;;4793671;29;20213;-48
2024/02/22 04:49:50;;;;;;;10.90;10.40;;;9.80;99.90;;;;;;4788773;29;20659;-45
2024/02/22 04:52:16;;;;;;;10.50;9.90;;;9.80;99.90;;;;;;4786248;29;20566;-46
2024/02/22 04:54:42;;;;;;;10.60;10.10;;;9.80;99.90;;;;;;4783776;29;20436;-46
2024/02/22 04:57:08;;;;;;;10.23;9.73;;;9.80;99.90;;;;;;4792944;29;20563;-49
2024/02/22 04:59:34;;;;;;;10.80;10.30;;;9.80;99.90;;;;;;4786826;29;20192;-43
2024/02/22 05:01:59;;;;;;;10.90;10.40;;;9.80;99.90;;;;;;4786403;29;20990;-48
2024/02/22 05:04:27;;;;;;;10.90;10.40;;;9.80;99.90;;;;;;4784262;29;20696;-45
2024/02/22 05:06:52;;;;;;;10.70;10.20;;;9.80;99.90;;;;;;4779728;29;20199;-46
2024/02/22 05:09:18;;;;;;;10.77;10.27;;;9.80;99.90;;;;;;4781942;29;20432;-46
2024/02/22 05:11:49;;;;;;;11.03;10.43;;;9.80;99.90;;;;;;4791261;29;20195;-44
2024/02/22 05:14:15;;;;;;;10.67;10.17;;;9.80;99.90;;;;;;4787834;29;20745;-46
2024/02/22 05:16:41;;;;;;;11.63;10.80;;;9.80;99.90;;;;;;4786908;29;20440;-43
2024/02/22 05:19:07;;;;;;;9.93;9.43;;;9.80;99.90;;;;;;4781533;29;20505;-44
2024/02/22 05:21:32;;;;;;;10.37;9.77;;;9.90;99.90;;;;;;4785436;29;20218;-45
2024/02/22 05:23:58;;;;;;;11.20;10.70;;;9.90;99.90;;;;;;4795016;29;20668;-43
2024/02/22 05:26:23;;;;;;;11.00;10.40;;;10.00;99.90;;;;;;4791635;29;20183;-43
2024/02/22 05:28:49;;;;;;;10.30;9.80;;;9.90;99.90;;;;;;4790331;29;20217;-46
2024/02/22 05:31:25;;;;;;;10.80;10.30;;;10.00;99.90;;;;;;4786164;29;20213;-43
2024/02/22 05:33:51;;;;;;;10.57;10.07;;;10.00;99.90;;;;;;4787448;29;20196;-42
2024/02/22 05:36:21;;;;;;;11.00;10.50;;;10.00;99.90;;;;;;4784962;29;20447;-43
2024/02/22 05:38:47;;;;;;;10.40;9.90;;;10.00;99.90;;;;;;4794465;29;20511;-46
2024/02/22 05:41:14;;;;;;;11.13;10.53;;;10.00;99.90;;;;;;4785239;29;20440;-43
2024/02/22 05:43:40;;;;;;;11.87;11.07;;;9.90;99.90;;;;;;4783051;29;20715;-47
2024/02/22 05:46:05;;;;;;;11.60;11.00;;;9.90;99.90;;;;;;4786442;29;20508;-48
2024/02/22 05:48:31;;;;;;;12.60;11.50;;;9.90;99.90;;;;;;4792761;29;20754;-49
2024/02/22 05:50:57;;;;;;;11.23;10.57;;;9.90;99.90;;;;;;4779364;29;20225;-52
2024/02/22 05:53:22;;;;;;;10.90;10.30;;;9.90;99.90;;;;;;4789137;29;20225;-55
2024/02/22 05:55:48;;;;;;;11.70;10.80;;;9.90;99.90;;;;;;4791088;29;20600;-54
2024/02/22 05:58:16;;;;;;;11.77;11.17;;;9.90;99.90;;;;;;4788224;29;20561;-53
2024/02/22 06:00:42;;;;;;;12.40;11.40;;;9.80;99.90;;;;;;4789905;29;20203;-52
2024/02/22 06:03:11;;;;;;;11.50;10.80;;;9.80;99.90;;;;;;4787756;29;20480;-52
2024/02/22 06:05:37;;;;;;;11.20;10.60;;;9.90;99.90;;;;;;4786982;29;20199;-53
2024/02/22 06:08:04;;;;;;;11.60;10.90;;;9.90;99.90;;;;;;4783753;29;20490;-53
2024/02/22 06:10:30;;;;;;;11.57;11.03;;;9.90;99.90;;;;;;4794054;29;20424;-51
2024/02/22 06:12:55;;;;;;;11.70;11.10;;;9.90;99.90;;;;;;4782123;29;20516;-50
2024/02/22 06:15:23;;;;;;;11.97;11.37;;;9.90;99.90;;;;;;4784613;29;20205;-55
2024/02/22 06:17:52;;;;;;;12.70;12.10;;;9.90;99.90;;;;;;4790348;29;20370;-51
2024/02/22 06:20:18;;;;;;;11.80;11.10;;;9.80;99.90;;;;;;4787729;29;20660;-54
2024/02/22 06:22:43;;;;;;;11.80;11.10;;;9.80;99.90;;;;;;4780642;29;20479;-51
2024/02/22 06:25:09;;;;;;;12.00;11.40;;;9.80;99.90;;;;;;4787442;29;20195;-52
2024/02/22 06:27:35;;;;;;;11.90;11.30;;;9.80;99.90;;;;;;4783150;29;20214;-52
2024/02/22 06:30:04;;;;;;;12.30;11.60;;;9.70;99.90;;;;;;4777069;29;20542;-50
2024/02/22 06:32:30;;;;;;;11.97;11.37;;;9.70;99.90;;;;;;4785647;29;20449;-53
2024/02/22 06:34:56;;;;;;;11.97;11.37;;;9.70;99.90;;;;;;4793708;29;20935;-55
2024/02/22 06:37:21;;;;;;;11.33;10.73;;;9.60;99.90;;;;;;4782724;29;20217;-52
2024/02/22 06:39:47;;;;;;;12.07;11.47;;;9.60;99.90;;;;;;4787447;29;20199;-51
2024/02/22 06:42:13;;;;;;;12.63;11.90;;;9.60;99.90;;;;;;4788472;29;20263;-54
2024/02/22 06:44:39;;;;;;;12.90;12.27;;;9.60;99.90;;;;;;4783620;29;20182;-45
2024/02/22 06:47:05;;;;;;;13.00;12.30;;;9.60;99.90;;;;;;4785870;29;20444;-44
2024/02/22 06:49:31;;;;;;;12.10;11.50;;;9.60;99.90;;;;;;4776647;29;20195;-44
2024/02/22 06:52:00;;;;;;;12.90;12.20;;;9.60;99.90;;;;;;4787370;29;20846;-44
2024/02/22 06:54:26;;;;;;;11.73;11.13;;;9.60;99.90;;;;;;4792863;29;20766;-46
2024/02/22 06:56:52;;;;;;;11.90;11.30;;;9.60;99.90;;;;;;4789918;29;20447;-43
2024/02/22 06:59:17;;;;;;;12.37;11.70;;;9.60;99.90;;;;;;4784406;29;20596;-44
2024/02/22 07:01:43;;;;;;;11.97;11.37;;;9.60;99.90;;;;;;4789668;29;20475;-44
2024/02/22 07:04:12;;;;;;;11.63;10.90;;;9.60;99.90;;;;;;4785628;29;20199;-42
2024/02/22 07:06:38;;;;;;;12.13;11.43;;;9.60;99.90;;;;;;4789273;29;20613;-46
2024/02/22 07:09:04;;;;;;;12.20;11.50;;;9.60;99.90;;;;;;4785045;29;20435;-44
2024/02/22 07:11:30;;;;;;;11.53;11.00;;;9.50;99.90;;;;;;4779594;29;20586;-43
2024/02/22 07:13:56;;;;;;;12.83;12.03;;;9.50;99.90;;;;;;4778747;29;20479;-50
2024/02/22 07:16:23;;;;;;;12.73;12.03;;;9.50;99.90;;;;;;4785334;29;20642;-44
2024/02/22 07:18:49;;;;;;;12.80;11.90;;;9.50;99.90;;;;;;4792716;29;20424;-44
2024/02/22 07:21:15;;;;;;;12.90;12.10;;;9.50;99.90;;;;;;4792819;29;20970;-49
2024/02/22 07:23:40;;;;;;;12.83;12.10;;;9.50;99.90;;;;;;4792938;29;20432;-46
2024/02/22 07:26:09;;;;;;;12.60;11.90;;;9.50;99.90;;;;;;4782739;29;20843;-44
2024/02/22 07:28:34;;;;;;;13.30;12.60;;;9.50;99.90;;;;;;4792313;29;20269;-48
2024/02/22 07:31:00;;;;;;;13.90;12.97;;;9.50;99.90;;;;;;4776730;29;20424;-45
2024/02/22 07:33:25;;;;;;;13.90;13.00;;;9.50;99.90;;;;;;4784308;29;20628;-45
2024/02/22 07:35:51;;;;;;;13.37;12.60;;;9.60;99.90;;;;;;4789988;29;20247;-44
2024/02/22 07:38:17;;;;;;;13.63;12.73;;;9.60;99.90;;;;;;4783195;29;20715;-43
2024/02/22 07:40:42;;;;;;;12.50;11.80;;;9.60;99.90;;;;;;4787255;29;20513;-44
2024/02/22 07:43:09;;;;;;;14.00;13.20;;;9.60;99.90;;;;;;4779080;29;20678;-43
2024/02/22 07:45:35;;;;;;;13.70;12.90;;;9.60;99.90;;;;;;4784020;29;20985;-48
2024/02/22 07:48:08;;;;;;;14.27;13.37;;;9.60;99.90;;;;;;4783163;29;20540;-43
2024/02/22 07:50:34;;;;;;;14.00;13.20;;;9.60;99.90;;;;;;4791158;29;20305;-44
2024/02/22 07:52:59;;;;;;;14.40;13.60;;;9.60;99.90;;;;;;4786465;29;20843;-43
2024/02/22 07:55:25;;;;;;;14.10;13.30;;;9.60;99.90;;;;;;4790643;29;20802;-44
2024/02/22 07:57:51;;;;;;;15.17;14.37;;;9.60;99.90;;;;;;4791021;29;20202;-44
2024/02/22 08:00:17;;;;;;;16.27;15.27;;;9.60;99.90;;;;;;4792417;29;21038;-48
2024/02/22 08:02:44;;;;;;;15.97;14.97;;;9.60;99.90;;;;;;4793569;29;20223;-43
2024/02/22 08:05:11;;;;;;;16.57;15.57;;;9.50;99.90;;;;;;4791325;29;20542;-49
2024/02/22 08:07:40;;;;;;;17.00;15.90;;;9.50;99.90;;;;;;4789130;29;20935;-43
2024/02/22 08:10:06;;;;;;;16.87;15.63;;;9.50;99.90;;;;;;4780618;29;20460;-45
2024/02/22 08:12:32;;;;;;;16.43;15.33;;;9.50;99.90;;;;;;4795840;29;20424;-47
2024/02/22 08:14:59;;;;;;;17.07;15.97;;;9.50;99.90;;;;;;4795294;29;20432;-43
2024/02/22 08:17:25;;;;;;;18.50;17.27;;;9.50;99.90;;;;;;4789088;29;20429;-44
2024/02/22 08:19:50;;;;;;;17.60;16.40;;;9.50;99.90;;;;;;4790444;29;20442;-43
2024/02/22 08:22:16;;;;;;;19.00;17.70;;;9.50;99.90;;;;;;4792768;29;20212;-47
2024/02/22 08:24:42;;;;;;;18.60;17.20;;;9.50;99.90;;;;;;4786562;29;20511;-43
2024/02/22 08:27:10;;;;;;;18.70;17.40;;;9.50;99.90;;;;;;4781588;29;20636;-43
2024/02/22 08:29:36;;;;;;;18.70;17.40;;;9.50;99.90;;;;;;4791342;29;21632;-45
2024/02/22 08:32:04;;;;;;;18.07;16.73;;;9.50;99.90;;;;;;4791594;29;20436;-45
2024/02/22 08:34:30;;;;;;;17.80;16.60;;;9.60;99.90;;;;;;4788163;29;20202;-45
2024/02/22 08:36:55;;;;;;;18.37;17.13;;;9.60;99.90;;;;;;4788033;29;20449;-46
2024/02/22 08:39:21;;;;;;;19.07;17.87;;;9.70;99.90;;;;;;4790408;29;20412;-43
2024/02/22 08:41:46;;;;;;;18.63;17.33;;;9.70;99.90;;;;;;4790413;29;20220;-43
2024/02/22 08:44:12;;;;;;;17.53;16.30;;;9.70;99.90;;;;;;4790265;29;20285;-43
2024/02/22 08:46:38;;;;;;;17.50;16.30;;;9.80;99.90;;;;;;4788781;29;20658;-45
2024/02/22 08:49:05;;;;;;;18.90;17.50;;;9.80;99.90;;;;;;4786507;29;20186;-45
2024/02/22 08:51:31;;;;;;;17.70;16.50;;;9.90;99.90;;;;;;4788882;29;20546;-44
2024/02/22 08:53:57;;;;;;;18.30;17.00;;;10.00;99.90;;;;;;4786469;29;20435;-47
2024/02/22 08:56:23;;;;;;;18.47;17.27;;;10.10;99.90;;;;;;4788543;29;20428;-48
2024/02/22 08:58:49;;;;;;;19.43;17.97;;;10.10;99.90;;;;;;4788806;29;20943;-46
2024/02/22 09:01:14;;;;;;;18.70;17.50;;;10.20;99.90;;;;;;4786370;29;20435;-48
2024/02/22 09:03:41;;;;;;;16.97;15.97;;;10.30;99.90;;;;;;4786491;29;20190;-45
2024/02/22 09:06:07;;;;;;;17.90;16.70;;;10.30;99.90;;;;;;4794493;29;20182;-46
2024/02/22 09:08:33;;;;;;;18.10;16.90;;;10.30;99.90;;;;;;4788861;29;20432;-44
2024/02/22 09:10:59;;;;;;;17.90;16.60;;;10.40;99.90;;;;;;4792508;29;20214;-46
2024/02/22 09:13:25;;;;;;;18.67;17.43;;;10.40;99.90;;;;;;4779426;29;20481;-49
2024/02/22 09:15:51;;;;;;;17.67;16.47;;;10.40;99.90;;;;;;4784468;29;21008;-47
2024/02/22 09:18:17;;;;;;;17.77;16.60;;;10.50;99.90;;;;;;4792370;29;20566;-44
2024/02/22 09:20:43;;;;;;;16.27;15.27;;;10.50;99.90;;;;;;4783654;29;20186;-45
2024/02/22 09:23:09;;;;;;;16.57;15.50;;;10.50;99.90;;;;;;4783241;29;20483;-51
2024/02/22 09:25:35;;;;;;;17.47;16.37;;;10.50;99.90;;;;;;4780857;29;20453;-49
2024/02/22 09:28:02;;;;;;;16.80;15.70;;;10.60;99.90;;;;;;4793996;29;20697;-45
2024/02/22 09:30:27;;;;;;;17.67;16.30;;;10.60;99.90;;;;;;4787807;29;20183;-46
2024/02/22 09:32:53;;;;;;;19.20;17.50;;;10.60;99.90;;;;;;4788872;29;20428;-46
2024/02/22 09:35:18;;;;;;;17.67;16.47;;;10.60;99.90;;;;;;4787798;29;20301;-46
2024/02/22 09:37:45;;;;;;;16.60;15.60;;;10.60;99.90;;;;;;4791868;29;20252;-44
2024/02/22 09:40:14;;;;;;;16.87;15.77;;;10.60;99.90;;;;;;4785318;29;20186;-48
2024/02/22 09:42:40;;;;;;;17.03;15.93;;;10.60;99.90;;;;;;4788659;29;20482;-47
2024/02/22 09:45:07;;;;;;;17.13;15.93;;;10.60;99.90;;;;;;4789560;29;20436;-49
2024/02/22 09:47:32;;;;;;;16.50;15.40;;;10.60;99.90;;;;;;4787254;29;20416;-44
2024/02/22 09:49:59;;;;;;;15.13;14.10;;;10.60;99.90;;;;;;4788301;29;20431;-47
2024/02/22 09:52:25;;;;;;;15.33;14.30;;;10.60;99.90;;;;;;4783557;29;20206;-49
2024/02/22 09:54:51;;;;;;;13.80;13.00;;;10.60;99.90;;;;;;4782865;29;20521;-57
2024/02/22 09:57:17;;;;;;;15.00;14.10;;;10.70;99.90;;;;;;4790731;29;20995;-56
2024/02/22 09:59:50;;;;;;;12.90;12.17;;;10.80;99.90;;;;;;4789369;29;20416;-55
2024/02/22 10:02:16;;;;;;;12.77;12.07;;;10.80;99.90;;;;;;4784182;29;20321;-56
2024/02/22 10:04:56;;;;;;;12.40;11.80;;;10.90;99.90;;;;;;4793387;29;20429;-56
2024/02/22 10:07:26;;;;;;;12.00;11.50;;;10.90;99.90;;;;;;4784899;29;20432;-54
2024/02/22 10:09:53;;;;;;;12.87;12.27;;;11.00;99.90;;;;;;4786014;29;20479;-57
2024/02/22 10:12:26;;;;;;;12.70;12.10;;;11.10;99.90;;;;;;4788904;29;20526;-55
2024/02/22 10:14:52;;;;;;;12.20;11.60;;;11.20;99.90;;;;;;4785805;29;20735;-56
2024/02/22 10:17:30;;;;;;;11.67;11.10;;;11.40;99.90;;;;;;4793935;29;20432;-55
2024/02/22 10:20:00;;;;;;;11.60;11.00;;;11.50;99.90;;;;;;4790762;29;20436;-56
2024/02/22 10:22:27;;;;;;;11.53;10.93;;;11.60;99.90;;;;;;4785866;29;20472;-44
2024/02/22 10:24:54;;;;;;;14.67;13.77;;;11.80;99.90;;;;;;4788195;29;20441;-45
2024/02/22 10:27:21;;;;;;;15.60;14.50;;;11.90;99.90;;;;;;4787097;29;20456;-48
2024/02/22 10:29:48;;;;;;;16.80;15.70;;;12.00;99.90;;;;;;4789253;29;20485;-48
2024/02/22 10:32:18;;;;;;;17.40;16.00;;;12.00;99.90;;;;;;4778756;29;20439;-43
2024/02/22 10:34:48;;;;;;;18.00;16.80;;;12.00;99.90;;;;;;4790589;29;20429;-44
2024/02/22 10:37:14;;;;;;;17.63;16.53;;;12.10;99.90;;;;;;4788944;29;20443;-45
2024/02/22 10:39:41;;;;;;;17.40;16.30;;;12.10;99.90;;;;;;4792448;29;20447;-56
2024/02/22 10:42:09;;;;;;;18.53;17.23;;;12.20;99.90;;;;;;4787339;29;20567;-55
2024/02/22 10:44:34;;;;;;;18.43;17.13;;;12.30;99.90;;;;;;4787190;29;20449;-57
2024/02/22 10:47:02;;;;;;;17.87;16.60;;;12.30;99.90;;;;;;4780375;29;20793;-53
2024/02/22 10:49:31;;;;;;;17.07;15.90;;;12.50;99.90;;;;;;4794503;29;20213;-56
2024/02/22 10:51:59;;;;;;;15.70;14.70;;;12.60;99.90;;;;;;4782839;29;20436;-56
2024/02/22 10:54:30;;;;;;;15.03;14.13;;;12.60;99.90;;;;;;4784584;29;20943;-44
2024/02/22 10:56:58;;;;;;;11.33;10.73;;;12.60;99.90;;;;;;4784348;29;20428;-44
2024/02/22 10:59:26;;;;;;;11.00;10.50;;;12.80;99.90;;;;;;4792933;29;20859;-43
2024/02/22 11:01:52;;;;;;;10.90;10.40;;;12.90;99.90;;;;;;4783436;29;20476;-46
2024/02/22 11:04:18;;;;;;;11.13;10.67;;;13.00;99.90;;;;;;4787124;29;20474;-44
2024/02/22 11:06:43;;;;;;;11.23;10.80;;;13.10;99.90;;;;;;4789100;29;20423;-47
2024/02/22 11:09:29;;;;;;;10.80;10.30;;;13.20;99.90;;;;;;4792964;29;20199;-43
2024/02/22 11:11:59;;;;;;;10.53;10.13;;;13.30;99.90;;;;;;4788436;29;20444;-44
2024/02/22 11:14:30;;;;;;;10.83;10.43;;;13.30;99.90;;;;;;4785637;29;20480;-44
2024/02/22 11:16:56;;;;;;;10.83;10.43;;;13.30;99.90;;;;;;4783588;29;20436;-46
2024/02/22 11:19:26;;;;;;;11.00;10.60;;;13.40;99.90;;;;;;4787725;29;20493;-46
2024/02/22 11:21:55;;;;;;;11.33;10.83;;;13.40;99.90;;;;;;4782923;29;21075;-45
2024/02/22 11:24:23;;;;;;;11.30;10.90;;;13.40;99.90;;;;;;4791496;29;20456;-43
2024/02/22 11:26:50;;;;;;;10.70;10.30;;;13.50;99.90;;;;;;4787181;29;20449;-44
2024/02/22 11:29:26;;;;;;;10.40;10.00;;;13.40;99.90;;;;;;4789928;29;20428;-44
2024/02/22 11:31:52;;;;;;;10.50;10.10;;;13.30;99.90;;;;;;4785707;29;20765;-49
2024/02/22 11:34:18;;;;;;;10.30;9.90;;;13.40;99.90;;;;;;4791582;29;20769;-46
2024/02/22 11:36:44;;;;;;;10.17;9.77;;;13.60;99.90;;;;;;4782454;29;20195;-44
2024/02/22 11:39:10;;;;;;;11.10;10.63;;;13.60;99.50;;;;;;4792266;29;20544;-47
2024/02/22 11:41:35;;;;;;;11.43;10.93;;;13.70;99.50;;;;;;4787631;29;20294;-48
2024/02/22 11:44:07;;;;;;;10.90;10.50;;;13.80;99.10;;;;;;4786941;29;20274;-46
2024/02/22 11:46:37;;;;;;;11.07;10.67;;;13.70;99.00;;;;;;4785001;29;20195;-45
2024/02/22 11:49:07;;;;;;;10.80;10.40;;;13.60;99.00;;;;;;4790114;29;20496;-45
2024/02/22 11:51:33;;;;;;;10.67;10.17;;;13.60;99.00;;;;;;4787649;29;20420;-47
2024/02/22 11:53:58;;;;;;;10.70;10.30;;;13.60;99.00;;;;;;4784360;29;20505;-46
2024/02/22 11:56:25;;;;;;;10.87;10.27;;;13.70;99.20;;;;;;4785477;29;20511;-46
2024/02/22 11:58:51;;;;;;;10.37;9.97;;;13.70;99.40;;;;;;4783318;29;20255;-42
2024/02/22 12:01:20;;;;;;;10.50;10.10;;;13.80;99.10;;;;;;4787545;29;20424;-43
2024/02/22 12:03:47;;;;;;;9.87;9.47;;;13.70;98.60;;;;;;4783535;29;20524;-44
2024/02/22 12:06:14;;;;;;;9.90;9.50;;;13.70;98.70;;;;;;4783674;29;20796;-46
2024/02/22 12:08:44;;;;;;;10.27;9.87;;;13.70;99.20;;;;;;4786597;29;20448;-43
2024/02/22 12:11:12;;;;;;;8.83;8.53;;;13.80;98.90;;;;;;4792396;29;20463;-45
2024/02/22 12:13:37;;;;;;;9.20;8.80;;;14.00;99.00;;;;;;4786462;29;20893;-43
2024/02/22 12:16:07;;;;;;;10.70;10.30;;;14.10;98.30;;;;;;4791989;29;20424;-44
2024/02/22 12:18:38;;;;;;;10.63;10.23;;;14.20;98.30;;;;;;4785226;29;20556;-43
2024/02/22 12:21:04;;;;;;;10.50;10.10;;;14.00;97.40;;;;;;4792144;29;20466;-46
2024/02/22 12:23:32;;;;;;;10.90;10.40;;;14.10;98.10;;;;;;4783401;29;20473;-44
2024/02/22 12:26:06;;;;;;;10.57;10.17;;;14.20;98.00;;;;;;4781433;29;20199;-47
2024/02/22 12:28:35;;;;;;;9.80;9.40;;;14.30;96.90;;;;;;4790485;29;20458;-44
2024/02/22 12:31:05;;;;;;;10.63;10.23;;;14.20;97.30;;;;;;4786070;29;20493;-44